createdAt,value
2017-10-09T00:01:53.356Z,85.20
2017-10-09T00:04:21.703Z,85.80
2017-10-09T00:06:49.239Z,85.80
2017-10-09T00:09:16.771Z,85.50
2017-10-09T00:11:44.326Z,85.20
2017-10-09T00:14:11.859Z,85.20
2017-10-09T00:16:39.391Z,85.10
2017-10-09T00:19:06.956Z,85.20
2017-10-09T00:21:34.491Z,85.20
2017-10-09T00:24:02.019Z,85.30
2017-10-09T00:26:29.598Z,85.40
2017-10-09T00:28:57.135Z,85.40
2017-10-09T00:31:25.440Z,85.50
2017-10-09T00:33:53.299Z,85.50
2017-10-09T00:36:20.830Z,85.70
2017-10-09T00:38:49.156Z,85.90
2017-10-09T00:41:16.715Z,85.90
2017-10-09T00:43:44.246Z,85.50
2017-10-09T00:46:11.778Z,85.80
2017-10-09T00:48:39.399Z,85.70
2017-10-09T00:51:06.939Z,85.60
2017-10-09T00:53:34.495Z,85.70
2017-10-09T00:56:02.079Z,85.50
2017-10-09T00:58:29.614Z,85.40
2017-10-09T01:00:57.150Z,85.50
2017-10-09T01:03:25.470Z,85.90
2017-10-09T01:05:53.011Z,85.90
2017-10-09T01:08:20.546Z,86.30
2017-10-09T01:10:48.900Z,86.00
2017-10-09T01:13:16.432Z,86.00
2017-10-09T01:15:43.968Z,86.10
2017-10-09T01:18:11.540Z,86.00
2017-10-09T01:20:39.847Z,86.30
2017-10-09T01:23:07.401Z,86.40
2017-10-09T01:25:34.973Z,86.70
2017-10-09T01:28:02.507Z,86.80
2017-10-09T01:30:30.047Z,87.10
2017-10-09T01:32:57.641Z,87.30
2017-10-09T01:35:25.551Z,86.90
2017-10-09T01:37:53.105Z,86.90
2017-10-09T01:40:21.431Z,86.90
2017-10-09T01:42:49.724Z,86.50
2017-10-09T01:45:17.257Z,86.50
2017-10-09T01:47:44.812Z,86.90
2017-10-09T01:50:12.347Z,86.90
2017-10-09T01:52:39.881Z,87.00
2017-10-09T01:55:07.488Z,86.60
2017-10-09T01:57:35.027Z,86.70
2017-10-09T02:00:02.564Z,86.60
2017-10-09T02:02:30.128Z,86.80
2017-10-09T02:04:57.660Z,86.70
2017-10-09T02:07:25.200Z,86.10
2017-10-09T02:09:52.764Z,86.60
2017-10-09T02:12:20.303Z,86.90
2017-10-09T02:14:47.835Z,86.90
2017-10-09T02:17:16.446Z,86.50
2017-10-09T02:19:43.983Z,86.70
2017-10-09T02:22:11.515Z,86.50
2017-10-09T02:24:39.087Z,86.20
2017-10-09T02:27:06.730Z,86.50
2017-10-09T02:29:34.270Z,86.20
2017-10-09T02:32:01.828Z,86.30
2017-10-09T02:34:29.359Z,86.50
2017-10-09T02:36:57.207Z,86.40
2017-10-09T02:39:24.798Z,86.30
2017-10-09T02:41:52.331Z,86.10
2017-10-09T02:44:19.855Z,86.00
2017-10-09T02:46:47.415Z,85.80
2017-10-09T02:49:16.405Z,85.70
2017-10-09T02:51:43.965Z,85.50
2017-10-09T02:54:11.519Z,85.20
2017-10-09T02:56:39.076Z,85.10
2017-10-09T02:59:06.649Z,85.60
2017-10-09T03:01:34.239Z,85.60
2017-10-09T03:04:02.539Z,85.30
2017-10-09T03:06:30.075Z,85.30
2017-10-09T03:08:58.411Z,85.30
2017-10-09T03:11:26.804Z,85.30
2017-10-09T03:13:54.339Z,85.00
2017-10-09T03:16:21.903Z,85.20
2017-10-09T03:18:49.435Z,85.20
2017-10-09T03:21:17.852Z,85.20
2017-10-09T03:27:08.693Z,85.40
2017-10-09T03:29:44.811Z,85.80
2017-10-09T03:32:12.343Z,85.90
2017-10-09T03:34:40.637Z,86.50
2017-10-09T03:37:08.231Z,86.40
2017-10-09T03:39:35.794Z,87.10
2017-10-09T03:42:03.327Z,86.50
2017-10-09T03:44:30.930Z,86.70
2017-10-09T03:46:58.456Z,86.30
2017-10-09T03:49:25.991Z,86.00
2017-10-09T03:51:53.546Z,85.90
2017-10-09T03:54:21.080Z,85.90
2017-10-09T03:56:48.629Z,85.80
2017-10-09T03:59:16.419Z,86.10
2017-10-09T04:01:43.983Z,85.80
2017-10-09T04:04:12.283Z,85.30
2017-10-09T04:06:39.871Z,85.20
2017-10-09T04:09:07.402Z,85.50
2017-10-09T04:11:34.939Z,85.70
2017-10-09T04:14:02.489Z,85.80
2017-10-09T04:16:30.799Z,86.20
2017-10-09T04:18:58.332Z,86.00
2017-10-09T04:21:26.656Z,86.10
2017-10-09T04:23:54.187Z,86.10
2017-10-09T04:26:21.727Z,86.20
2017-10-09T04:28:50.081Z,86.30
2017-10-09T04:31:17.616Z,86.30
2017-10-09T04:33:45.151Z,86.50
2017-10-09T04:36:12.728Z,86.20
2017-10-09T04:38:40.667Z,86.40
2017-10-09T04:41:08.210Z,87.30
2017-10-09T04:43:35.772Z,86.60
2017-10-09T04:46:03.310Z,86.70
2017-10-09T04:48:30.840Z,86.60
2017-10-09T04:50:58.434Z,86.60
2017-10-09T04:53:25.964Z,86.90
2017-10-09T04:55:53.499Z,86.70
2017-10-09T04:58:21.108Z,86.70
2017-10-09T05:00:48.633Z,86.40
2017-10-09T05:03:17.204Z,86.10
2017-10-09T05:05:44.758Z,86.10
2017-10-09T05:08:12.299Z,86.40
2017-10-09T05:10:39.827Z,86.40
2017-10-09T05:13:07.417Z,86.70
2017-10-09T05:15:35.724Z,87.20
2017-10-09T05:18:03.261Z,86.60
2017-10-09T05:20:31.587Z,86.90
2017-10-09T05:22:59.115Z,86.90
2017-10-09T05:25:26.651Z,86.90
2017-10-09T05:27:54.215Z,87.00
2017-10-09T05:30:22.517Z,86.70
2017-10-09T05:32:50.055Z,86.60
2017-10-09T05:35:18.411Z,87.10
2017-10-09T05:37:45.951Z,87.00
2017-10-09T05:40:15.698Z,88.20
2017-10-09T05:42:43.265Z,88.20
2017-10-09T05:45:11.572Z,88.80
2017-10-09T05:47:39.871Z,89.60
2017-10-09T05:50:07.435Z,89.60
2017-10-09T05:52:34.976Z,89.90
2017-10-09T05:55:02.519Z,89.80
2017-10-09T05:57:30.415Z,90.00
2017-10-09T05:59:57.954Z,90.10
2017-10-09T06:02:25.483Z,90.00
2017-10-09T06:04:53.039Z,89.90
2017-10-09T06:07:20.567Z,89.80
2017-10-09T06:09:48.099Z,89.60
2017-10-09T06:12:16.438Z,89.20
2017-10-09T06:14:44.739Z,89.20
2017-10-09T06:17:12.270Z,89.10
2017-10-09T06:19:40.894Z,89.20
2017-10-09T06:22:08.418Z,89.10
2017-10-09T06:24:36.834Z,89.20
2017-10-09T06:27:04.408Z,89.20
2017-10-09T06:29:31.951Z,88.80
2017-10-09T06:32:00.251Z,88.20
2017-10-09T06:34:27.807Z,88.20
2017-10-09T06:36:55.337Z,88.20
2017-10-09T06:39:22.871Z,87.80
2017-10-09T06:41:50.711Z,88.00
2017-10-09T06:44:18.243Z,88.00
2017-10-09T06:46:45.770Z,88.40
2017-10-09T06:49:15.450Z,88.20
2017-10-09T06:51:42.990Z,88.20
2017-10-09T06:54:10.531Z,88.20
2017-10-09T06:56:38.091Z,88.20
2017-10-09T06:59:05.624Z,87.70
2017-10-09T07:01:33.159Z,87.50
2017-10-09T07:04:00.738Z,87.70
2017-10-09T07:06:29.039Z,88.30
2017-10-09T07:08:56.570Z,88.20
2017-10-09T07:11:24.894Z,88.30
2017-10-09T07:13:52.435Z,88.30
2017-10-09T07:16:19.980Z,88.00
2017-10-09T07:18:47.548Z,88.00
2017-10-09T07:21:16.407Z,87.90
2017-10-09T07:23:43.939Z,87.90
2017-10-09T07:26:11.544Z,87.40
2017-10-09T07:28:39.083Z,87.20
2017-10-09T07:31:06.611Z,87.40
2017-10-09T07:33:34.166Z,87.70
2017-10-09T07:36:01.701Z,88.00
2017-10-09T07:38:29.243Z,87.10
2017-10-09T07:40:56.816Z,87.20
2017-10-09T07:43:24.744Z,87.40
2017-10-09T07:45:52.270Z,87.00
2017-10-09T07:48:19.856Z,87.20
2017-10-09T07:50:47.398Z,86.50
2017-10-09T07:53:16.499Z,86.90
2017-10-09T07:55:44.063Z,87.80
2017-10-09T07:58:11.591Z,88.10
2017-10-09T08:00:39.127Z,87.80
2017-10-09T08:03:06.687Z,88.70
2017-10-09T08:05:34.219Z,87.10
2017-10-09T08:08:02.524Z,87.40
2017-10-09T08:10:30.102Z,87.30
2017-10-09T08:12:57.634Z,86.80
2017-10-09T08:15:25.180Z,87.10
2017-10-09T08:17:52.743Z,86.90
2017-10-09T08:20:21.040Z,85.50
2017-10-09T08:22:48.573Z,85.40
2017-10-09T08:25:16.450Z,85.50
2017-10-09T08:27:43.975Z,85.40
2017-10-09T08:30:11.508Z,86.10
2017-10-09T08:32:39.096Z,86.30
2017-10-09T08:35:06.634Z,86.10
2017-10-09T08:37:34.163Z,86.20
2017-10-09T08:40:01.722Z,86.10
2017-10-09T08:42:29.242Z,85.80
2017-10-09T08:44:57.127Z,86.10
2017-10-09T08:47:25.471Z,85.00
2017-10-09T08:49:52.997Z,85.00
2017-10-09T08:52:20.524Z,85.40
2017-10-09T08:54:49.138Z,85.00
2017-10-09T08:57:16.662Z,85.00
2017-10-09T08:59:44.963Z,85.20
2017-10-09T09:02:12.537Z,85.10
2017-10-09T09:04:40.071Z,85.90
2017-10-09T09:07:07.656Z,84.80
2017-10-09T09:09:35.219Z,84.50
2017-10-09T09:12:02.747Z,84.70
2017-10-09T09:14:30.278Z,84.30
2017-10-09T09:16:57.874Z,84.50
2017-10-09T09:19:26.177Z,83.60
2017-10-09T09:21:54.479Z,82.80
2017-10-09T09:24:22.038Z,82.70
2017-10-09T09:26:49.567Z,82.60
2017-10-09T09:29:17.095Z,82.10
2017-10-09T09:31:44.651Z,81.90
2017-10-09T09:34:12.191Z,81.10
2017-10-09T09:36:39.713Z,81.00
2017-10-09T09:39:07.310Z,80.20
2017-10-09T09:41:34.835Z,80.60
2017-10-09T09:44:02.360Z,80.00
2017-10-09T09:46:30.823Z,78.50
2017-10-09T09:48:58.360Z,78.50
2017-10-09T09:51:25.898Z,77.20
2017-10-09T09:53:53.448Z,76.10
2017-10-09T09:56:20.980Z,75.80
2017-10-09T09:58:48.510Z,75.80
2017-10-09T10:01:16.427Z,75.10
2017-10-09T10:03:43.960Z,75.00
2017-10-09T10:06:11.488Z,77.00
2017-10-09T10:08:39.047Z,75.80
2017-10-09T10:11:06.567Z,75.90
2017-10-09T10:13:34.109Z,75.00
2017-10-09T10:16:02.437Z,74.80
2017-10-09T10:18:29.968Z,74.80
2017-10-09T10:20:57.491Z,74.10
2017-10-09T10:23:25.864Z,73.70
2017-10-09T10:25:53.404Z,73.60
2017-10-09T10:28:20.940Z,73.90
2017-10-09T10:30:48.522Z,71.80
2017-10-09T10:33:16.491Z,70.50
2017-10-09T10:35:44.016Z,72.00
2017-10-09T10:38:11.590Z,72.10
2017-10-09T10:40:39.883Z,72.60
2017-10-09T10:43:07.412Z,72.50
2017-10-09T10:45:35.003Z,72.00
2017-10-09T10:48:02.936Z,71.50
2017-10-09T10:50:30.477Z,71.60
2017-10-09T10:52:58.794Z,70.10
2017-10-09T10:55:26.319Z,70.00
2017-10-09T10:57:54.616Z,69.10
2017-10-09T11:00:22.175Z,69.00
2017-10-09T11:02:49.707Z,70.30
2017-10-09T11:05:17.243Z,68.50
2017-10-09T11:07:44.818Z,68.30
2017-10-09T11:10:14.035Z,69.00
2017-10-09T11:12:41.567Z,69.00
2017-10-09T11:15:09.127Z,70.30
2017-10-09T11:17:36.659Z,70.10
2017-10-09T11:20:04.194Z,71.40
2017-10-09T11:22:31.755Z,70.30
2017-10-09T11:24:59.289Z,71.40
2017-10-09T11:27:27.593Z,71.10
2017-10-09T11:29:55.183Z,71.00
2017-10-09T11:32:22.720Z,68.60
2017-10-09T11:34:50.264Z,67.50
2017-10-09T11:37:17.831Z,68.80
2017-10-09T11:39:45.368Z,67.50
2017-10-09T11:42:24.447Z,67.50
2017-10-09T11:48:54.804Z,68.20
2017-10-09T11:51:22.336Z,69.00
2017-10-09T11:53:49.874Z,68.20
2017-10-09T11:56:17.433Z,67.80
2017-10-09T11:58:44.959Z,67.30
2017-10-09T12:01:12.478Z,66.40
2017-10-09T12:03:40.031Z,66.90
2017-10-09T12:06:07.560Z,66.40
2017-10-09T12:08:35.852Z,65.70
2017-10-09T12:11:03.436Z,65.50
2017-10-09T12:13:30.966Z,65.60
2017-10-09T12:15:58.506Z,63.60
2017-10-09T12:18:26.074Z,64.80
2017-10-09T12:20:54.379Z,66.20
2017-10-09T12:23:21.911Z,66.20
2017-10-09T12:25:50.239Z,67.90
2017-10-09T12:28:17.768Z,67.80
2017-10-09T12:30:45.307Z,67.60
2017-10-09T12:33:24.370Z,66.80
2017-10-09T12:45:01.932Z,66.80
2017-10-09T12:47:29.462Z,66.60
2017-10-09T12:49:57.435Z,67.10
2017-10-09T12:52:25.016Z,66.80
2017-10-09T12:54:52.563Z,66.30
2017-10-09T12:57:20.096Z,66.10
2017-10-09T12:59:49.269Z,65.90
2017-10-09T13:02:16.807Z,65.70
2017-10-09T13:04:44.349Z,66.50
2017-10-09T13:07:11.972Z,67.70
2017-10-09T13:09:39.544Z,67.90
2017-10-09T13:12:07.083Z,68.10
2017-10-09T13:14:34.704Z,69.60
2017-10-09T13:17:02.428Z,70.10
2017-10-09T13:19:29.990Z,69.10
2017-10-09T13:21:57.574Z,69.30
2017-10-09T13:24:25.132Z,69.40
2017-10-09T13:26:52.681Z,69.70
2017-10-09T13:29:20.287Z,69.10
2017-10-09T13:31:48.011Z,70.40
2017-10-09T13:34:17.218Z,70.80
2017-10-09T13:36:45.623Z,71.90
2017-10-09T13:39:24.968Z,71.90
2017-10-09T13:44:50.381Z,72.70
2017-10-09T13:47:28.128Z,73.60
2017-10-09T13:49:55.737Z,74.70
2017-10-09T13:52:23.310Z,75.40
2017-10-09T13:54:50.862Z,75.30
2017-10-09T13:57:18.491Z,75.10
2017-10-09T13:59:46.059Z,74.50
2017-10-09T14:02:25.096Z,74.70
2017-10-09T14:10:42.699Z,75.00
2017-10-09T14:13:14.800Z,74.60
2017-10-09T14:15:43.191Z,74.80
2017-10-09T14:18:10.741Z,74.70
2017-10-09T14:20:38.323Z,73.90
2017-10-09T14:23:05.919Z,73.70
2017-10-09T14:25:33.594Z,74.30
2017-10-09T14:28:01.992Z,72.80
2017-10-09T14:30:30.343Z,72.40
2017-10-09T14:40:21.281Z,71.50
2017-10-09T14:42:48.828Z,69.70
2017-10-09T14:45:17.277Z,71.00
2017-10-09T14:47:45.637Z,71.40
2017-10-09T14:50:15.394Z,70.40
2017-10-09T14:52:44.093Z,70.30
2017-10-09T14:55:12.114Z,72.30
2017-10-09T14:57:39.768Z,72.50
2017-10-09T15:00:12.130Z,73.40
2017-10-09T15:02:39.667Z,73.40
2017-10-09T15:05:07.195Z,73.60
2017-10-09T15:07:34.760Z,74.00
2017-10-09T15:10:02.300Z,74.90
2017-10-09T15:12:30.651Z,74.80
2017-10-09T15:14:58.224Z,74.80
2017-10-09T15:17:25.755Z,74.80
2017-10-09T15:19:53.295Z,75.60
2017-10-09T15:22:21.115Z,75.70
2017-10-09T15:24:49.119Z,76.40
2017-10-09T15:27:16.663Z,75.90
2017-10-09T15:29:44.236Z,75.90
2017-10-09T15:32:11.816Z,76.10
2017-10-09T15:34:39.358Z,76.80
2017-10-09T15:37:06.948Z,76.90
2017-10-09T15:39:34.487Z,76.20
2017-10-09T15:42:02.304Z,76.00
2017-10-09T15:44:35.248Z,76.30
2017-10-09T15:47:03.522Z,76.30
2017-10-09T15:49:31.966Z,75.50
2017-10-09T15:51:59.958Z,75.00
2017-10-09T15:54:29.327Z,74.10
2017-10-09T15:56:56.886Z,73.40
2017-10-09T15:59:25.216Z,73.80
2017-10-09T16:01:52.751Z,73.80
2017-10-09T16:04:20.601Z,74.20
2017-10-09T16:06:48.252Z,74.10
2017-10-09T16:09:16.520Z,74.20
2017-10-09T16:11:44.902Z,74.70
2017-10-09T16:14:12.490Z,74.70
2017-10-09T16:16:40.268Z,74.50
2017-10-09T16:19:07.903Z,74.70
2017-10-09T16:21:35.467Z,74.90
2017-10-09T16:24:03.004Z,74.80
2017-10-09T16:26:31.311Z,75.30
2017-10-09T16:28:58.943Z,75.30
2017-10-09T16:31:27.275Z,75.90
2017-10-09T16:33:54.807Z,75.90
2017-10-09T16:36:22.381Z,76.30
2017-10-09T16:38:49.943Z,76.60
2017-10-09T16:41:17.475Z,77.00
2017-10-09T16:43:45.795Z,77.00
2017-10-09T16:46:15.379Z,77.70
2017-10-09T16:48:42.910Z,77.70
2017-10-09T16:51:10.493Z,78.00
2017-10-09T16:53:38.027Z,78.50
2017-10-09T16:56:06.827Z,78.90
2017-10-09T16:58:35.176Z,78.40
2017-10-09T17:01:02.721Z,78.30
2017-10-09T17:03:30.251Z,78.90
2017-10-09T17:05:57.812Z,79.10
2017-10-09T17:08:25.393Z,78.70
2017-10-09T17:10:53.240Z,78.80
2017-10-09T17:13:20.820Z,79.20
2017-10-09T17:15:48.394Z,79.10
2017-10-09T17:18:16.556Z,79.10
2017-10-09T17:20:44.211Z,79.20
2017-10-09T17:23:11.786Z,79.20
2017-10-09T17:25:39.515Z,77.60
2017-10-09T17:28:07.659Z,78.80
2017-10-09T17:30:35.220Z,78.70
2017-10-09T17:33:02.756Z,78.00
2017-10-09T17:35:31.044Z,77.70
2017-10-09T17:38:00.991Z,78.70
2017-10-09T17:40:28.542Z,78.70
2017-10-09T17:42:56.114Z,78.60
2017-10-09T17:45:23.655Z,78.80
2017-10-09T17:47:51.963Z,79.10
2017-10-09T17:50:19.535Z,79.10
2017-10-09T17:52:49.384Z,78.60
2017-10-09T17:55:16.928Z,78.70
2017-10-09T17:57:44.551Z,79.20
2017-10-09T18:00:12.160Z,79.60
2017-10-09T18:02:39.691Z,79.10
2017-10-09T18:05:07.259Z,79.50
2017-10-09T18:07:34.791Z,79.40
2017-10-09T18:10:02.329Z,79.30
2017-10-09T18:12:30.682Z,79.60
2017-10-09T18:14:58.220Z,79.50
2017-10-09T18:17:26.084Z,80.30
2017-10-09T18:19:53.687Z,79.50
2017-10-09T18:22:22.001Z,79.50
2017-10-09T18:24:49.560Z,79.50
2017-10-09T18:27:17.129Z,80.00
2017-10-09T18:29:44.709Z,80.00
2017-10-09T18:32:12.312Z,80.10
2017-10-09T18:34:41.011Z,80.60
2017-10-09T18:37:08.572Z,81.20
2017-10-09T18:39:36.359Z,81.80
2017-10-09T18:42:03.968Z,82.50
2017-10-09T18:44:32.319Z,82.90
2017-10-09T18:46:59.860Z,82.90
2017-10-09T18:49:27.508Z,83.20
2017-10-09T18:51:55.048Z,83.20
2017-10-09T18:54:22.587Z,83.10
2017-10-09T18:56:50.171Z,83.00
2017-10-09T18:59:18.184Z,82.90
2017-10-09T19:01:45.907Z,82.70
2017-10-09T19:04:24.703Z,83.30
2017-10-09T19:09:34.370Z,82.80
2017-10-09T19:12:01.906Z,82.90
2017-10-09T19:14:29.434Z,83.00
2017-10-09T19:16:57.004Z,83.00
2017-10-09T19:19:24.555Z,82.40
2017-10-09T19:21:52.092Z,82.10
2017-10-09T19:24:19.816Z,82.00
2017-10-09T19:26:47.489Z,82.00
2017-10-09T19:29:16.426Z,82.20
2017-10-09T19:31:43.986Z,81.90
2017-10-09T19:34:11.527Z,81.70
2017-10-09T19:36:39.096Z,81.60
2017-10-09T19:39:06.707Z,81.60
2017-10-09T19:41:34.315Z,81.80
2017-10-09T19:44:01.996Z,81.90
2017-10-09T19:46:29.594Z,81.80
2017-10-09T19:48:57.213Z,82.00
2017-10-09T19:51:24.801Z,82.00
2017-10-09T19:53:52.365Z,82.00
2017-10-09T19:56:19.910Z,81.80
2017-10-09T19:58:47.448Z,81.90
2017-10-09T20:01:16.427Z,82.00
2017-10-09T20:03:43.964Z,82.50
2017-10-09T20:06:11.705Z,82.40
2017-10-09T20:08:39.356Z,82.10
2017-10-09T20:11:06.890Z,82.40
2017-10-09T20:13:34.519Z,82.70
2017-10-09T20:16:02.124Z,83.00
2017-10-09T20:18:29.721Z,83.20
2017-10-09T20:20:57.322Z,83.20
2017-10-09T20:23:24.884Z,83.50
2017-10-09T20:25:52.527Z,83.70
2017-10-09T20:28:20.824Z,84.40
2017-10-09T20:30:48.556Z,84.40
2017-10-09T20:33:16.592Z,84.60
2017-10-09T20:35:44.265Z,84.70
2017-10-09T20:38:11.841Z,85.40
2017-10-09T20:40:41.081Z,87.50
2017-10-09T20:43:10.275Z,87.30
2017-10-09T20:45:38.757Z,87.70
2017-10-09T20:48:06.328Z,87.90
2017-10-09T20:50:33.961Z,88.00
2017-10-09T20:53:01.567Z,88.00
2017-10-09T20:55:29.327Z,88.40
2017-10-09T20:57:56.875Z,88.60
2017-10-09T21:00:24.433Z,88.60
2017-10-09T21:02:52.295Z,88.50
2017-10-09T21:05:19.831Z,88.30
2017-10-09T21:07:47.391Z,88.40
2017-10-09T21:10:16.874Z,88.10
2017-10-09T21:12:45.225Z,88.40
2017-10-09T21:15:13.876Z,88.40
2017-10-09T21:17:41.457Z,88.30
2017-10-09T21:20:09.075Z,88.70
2017-10-09T21:22:37.457Z,88.60
2017-10-09T21:25:05.015Z,88.60
2017-10-09T21:27:32.559Z,88.30
2017-10-09T21:30:00.252Z,88.10
2017-10-09T21:32:27.842Z,87.80
2017-10-09T21:34:55.376Z,87.90
2017-10-09T21:37:22.984Z,87.50
2017-10-09T21:39:50.515Z,87.60
2017-10-09T21:42:18.047Z,87.70
2017-10-09T21:44:46.516Z,87.70
2017-10-09T21:47:15.506Z,87.60
2017-10-09T21:49:43.829Z,87.80
2017-10-09T21:52:12.263Z,88.30
2017-10-09T21:54:40.591Z,88.40
2017-10-09T21:57:08.148Z,88.30
2017-10-09T21:59:35.727Z,88.40
2017-10-09T22:02:03.260Z,88.40
2017-10-09T22:04:31.535Z,88.20
2017-10-09T22:07:00.129Z,88.30
2017-10-09T22:09:27.731Z,88.50
2017-10-09T22:11:56.107Z,88.80
2017-10-09T22:14:23.733Z,88.70
2017-10-09T22:16:51.255Z,88.70
2017-10-09T22:19:19.545Z,88.80
2017-10-09T22:21:47.147Z,88.70
2017-10-09T22:24:16.443Z,88.70
2017-10-09T22:26:43.967Z,88.50
2017-10-09T22:29:11.520Z,88.50
2017-10-09T22:31:39.035Z,87.90
2017-10-09T22:34:06.562Z,88.20
2017-10-09T22:36:34.117Z,88.10
2017-10-09T22:39:01.636Z,88.00
2017-10-09T22:41:29.167Z,87.70
2017-10-09T22:43:56.742Z,87.80
2017-10-09T22:46:24.267Z,87.90
2017-10-09T22:48:51.796Z,87.80
2017-10-09T22:51:19.363Z,87.20
2017-10-09T22:53:46.899Z,87.30
2017-10-09T22:56:15.540Z,87.10
2017-10-09T22:58:43.094Z,87.10
2017-10-09T23:01:10.632Z,86.80
2017-10-09T23:03:38.155Z,86.40
2017-10-09T23:06:06.030Z,86.40
2017-10-09T23:08:34.331Z,87.00
2017-10-09T23:11:01.864Z,86.90
2017-10-09T23:13:30.183Z,87.00
2017-10-09T23:15:57.714Z,87.00
2017-10-09T23:18:26.012Z,86.80
2017-10-09T23:20:53.558Z,86.80
2017-10-09T23:23:21.092Z,86.70
2017-10-09T23:25:48.620Z,86.80
2017-10-09T23:28:16.523Z,86.70
2017-10-09T23:30:44.819Z,86.30
2017-10-09T23:33:12.352Z,86.20
2017-10-09T23:35:39.908Z,86.30
2017-10-09T23:38:07.435Z,86.30
2017-10-09T23:40:34.961Z,86.60
2017-10-09T23:43:02.519Z,86.50
2017-10-09T23:45:30.042Z,86.70
2017-10-09T23:47:57.563Z,86.30
2017-10-09T23:50:25.183Z,85.90
2017-10-09T23:52:53.560Z,85.60
2017-10-09T23:55:21.857Z,85.60
2017-10-09T23:57:49.422Z,85.50
